Ana Sayfa
METAR-TAF:

METAR-TAF

Havaalanları :

Nashua, New Hampshire, Amerika Birleşik Devletleri

Enlem: 42-47N, Boylam: 071-31W, yükseklik: 61 m

Güncel hava durumu gözlemi

Rapor saat 01:56 UTC de 1 saat ve 2 dakika önce yapıldı.
Rüzgar kuzey/kuzeybatıdan 7 kt
Sıcaklık 7°C
Nem 53%
Basınç 1007 hPa
Görüş mesafesi: 16.1 km
5000 ft yükseklikte parçalı bulutlu
11000 ft yükseklikte parçalı çok bulutlu

METAR: KASH 020156Z AUTO 33007KT 10SM SCT050 BKN110 07/M02 A2974 RMK AO2 SLP076 T00671017

Saat: 22:58 (02:58 UTC)


TAF: eksik

4.000'den fazla havaalanı için hava durumu gözlemleri ve tahminleri (METAR ve TAF raporları).

Kullanılabilir istasyonlar harita üzerinde sarı ve kırmızı noktalarla gösterilir.

İstasyonun adını görmek için fareyi noktanın üzerinde gezdirin.

Sonrasında hava gözlem ve tahminlerini görmek için tıklayın.

Haritayı değiştirmek için: yaklaştırmak için siyah artı işaretli yeşil düğmeye ve uzaklaştırmak için de eksi işaretli düğmeye hızla tıklayın; bitişik haritalar için yeşil okları kullanın.


METAR-TAF: